19:34
Airports
History
Links
Donate
Help keep this website running!
PayPal
Bitcoin
Information on this page is community maintained and may be outdated or inaccurate and is intended for reference only or PC simulator navigating.
Always use approved charts for navigating.
LIDW
Salgareda Aviosuperficie Carrer
Salgareda Aviosuperficie Carrer (LIDW)
Salgareda, Veneto, Italy (31040)
4
Lat/Lng:45° 42' 12" N / 12° 32' 11" E
45.703333 / 12.536389
Elevation:17'ft 5mMSL
ID / ICAO:LIDW
Runways:1
Longest:(15-33) 692.0m 2,270ft Grass
Distance To
Airport ID:
Nearby VORs <50NM
Nearby NDBs
Nearby WeatherUpdated 05-27-17 19:20 GMT
Nearby weather at LIPZ, Venezia Tessera located 16.4 nautical miles from LIDW
Altimeter: 30.09
Visibility: 6.2 statute miles
Wind: 5 knots (160°)
Temp: 23°c 73°f
Humidity: 69.0%

METAR: LIPZ 271920Z 16005KT CAVOK 23/17 Q1019 NOSIG

(Powered by phpweather)
Runway 15 / 33
Dimensions:692 x 50m 2270' x 164'ft
Surface:Grass
Runway 15 [A]Runway 33 [B]
Heading:149°TH 329°TH
Lat:
Lng:
45° 42' 21.82"N
12° 32' 2.88"E
45° 42' 2.18"N
12° 32' 19.12"E
User Notes and Comments
Google Map
Nearby Airports
(C) Venezia Tessera 16.4 NM
LIPZ (WX) SSW 213°
(C) TREVISO 17.0 NM
LIPH (WX) WSW 257°
4 Venezia San Nicolo 20.3 NM
LIPV SSW 200°
(C) Istrana 21.7 NM
LIPS (WX) W 266°
(U) Casarsa 22.0 NM
LIDK NE 38°
(C) AVIANO AB 22.8 NM
LIPA (WX) N
4 Fraforeano Ronchis 24.8 NM
LIDJ ENE 68°
VFR Chart
Flight Planning at SkyVector.com